Weather at Cagliari Elmas Airport

Public forecast

Using degrees Celsius for public forecast. Weather courtesy of forecast.io.

Current aviation weather report (METAR) for Cagliari Elmas Airport

Retrieved 2020/12/04 10:20 UTC (22 minutes ago):

LIEE 041020Z 19010KT 9999 FEW040 17/10 Q1002

Aviation forecast (TAF) for Cagliari Elmas Airport

Retrieved 2020/12/04 06:00 UTC (5 hours ago):

TAF LIEE 040500Z 0406/0506 VRB05KT 9999 SCT040 BECMG 0406/0408 16015KT TEMPO 0418/0506 4000 SHRA